M I D A S
Marine Information and Data Acquisition System
Tripno 1454 of the Zeeleeuw from 2008-04-09 07:03:28 to 2008-04-09 10:24:47
Back to CruiseResearch ActivitiesStationsMapUnderway DataData graphs

EquipmentUnitsComment
TimeDGPSUTC
LatitudeDGPSDM.mWGS84
LongitudeDGPSDM.mWGS84
HeadingGyrodeg 
SOGDGPSknotsSpeed over ground
COGDGPSdegCourse over ground
DepthEcho soundermeters200 kHz
Missing or incorrect values are displayed as -999
Navigation data collected by the RV Zeeleeuw from 2008-04-09 07:06:11 to 2008-04-09 10:35:00
                                                                                    Next 1000 lines
Time Latitude Longitude Heading SOG COG Depth
2008-04-09 07:06:21 51°13.663 2°55.95 108.9 0.9 284 5.5
2008-04-09 07:06:26 51°13.664 2°55.947 109.1 1.4 289 5.6
2008-04-09 07:06:31 51°13.664 2°55.943 109.8 1.8 290 5.6
2008-04-09 07:06:37 51°13.666 2°55.938 110.6 2.2 291 -999
2008-04-09 07:06:42 51°13.667 2°55.932 111.8 2.6 292 -999
2008-04-09 07:06:48 51°13.669 2°55.926 113.1 3 297 -999
2008-04-09 07:06:54 51°13.672 2°55.918 113.9 3.2 297 -999
2008-04-09 07:06:59 51°13.674 2°55.911 114.6 3.5 297 -999
2008-04-09 07:07:05 51°13.677 2°55.902 115 3.8 297 -999
2008-04-09 07:07:10 51°13.68 2°55.894 115.3 4 297 -999
2008-04-09 07:07:15 51°13.682 2°55.886 115.3 4.1 297 -999
2008-04-09 07:07:20 51°13.685 2°55.877 115.3 4.2 296 -999
2008-04-09 07:07:25 51°13.687 2°55.869 115.1 4.3 297 -999
2008-04-09 07:07:30 51°13.69 2°55.86 115.3 4.4 297 -999
2008-04-09 07:07:35 51°13.693 2°55.852 116.1 4.4 297 -999
2008-04-09 07:07:40 51°13.696 2°55.843 117 4.5 299 -999
2008-04-09 07:07:45 51°13.699 2°55.834 118.6 4.7 299 -999
2008-04-09 07:07:50 51°13.703 2°55.825 119.9 4.8 301 -999
2008-04-09 07:07:55 51°13.706 2°55.815 120.9 4.9 302 -999
2008-04-09 07:08:00 51°13.71 2°55.806 121.8 5 303 -999
2008-04-09 07:08:05 51°13.714 2°55.797 122.9 5.1 304 -999
2008-04-09 07:08:10 51°13.718 2°55.787 123.7 5.2 304 -999
2008-04-09 07:08:15 51°13.722 2°55.778 124.5 5.3 304 -999
2008-04-09 07:08:20 51°13.727 2°55.768 125.2 5.3 305 -999
2008-04-09 07:08:25 51°13.731 2°55.758 126.4 5.4 307 -999
2008-04-09 07:08:30 51°13.736 2°55.749 127.5 5.4 308 -999
2008-04-09 07:08:35 51°13.74 2°55.74 129.1 5.4 309 -999
2008-04-09 07:08:40 51°13.745 2°55.731 130.6 5.4 310 -999
2008-04-09 07:08:45 51°13.75 2°55.722 132.8 5.4 312 -999
2008-04-09 07:08:50 51°13.755 2°55.713 134.8 5.4 314 -999
2008-04-09 07:08:55 51°13.761 2°55.705 136.9 5.5 317 -999
2008-04-09 07:09:00 51°13.767 2°55.697 138.7 5.5 318 -999
2008-04-09 07:09:05 51°13.773 2°55.689 140.8 5.5 320 -999
2008-04-09 07:09:10 51°13.779 2°55.682 142.5 5.5 322 -999
2008-04-09 07:09:15 51°13.785 2°55.675 144.1 5.5 324 -999
2008-04-09 07:09:20 51°13.791 2°55.668 145.4 5.5 325 -999
2008-04-09 07:09:25 51°13.798 2°55.661 147.3 5.5 327 -999
2008-04-09 07:09:30 51°13.804 2°55.655 148.9 5.6 328 -999
2008-04-09 07:09:35 51°13.811 2°55.649 150.4 5.6 329 -999
2008-04-09 07:09:40 51°13.818 2°55.643 151.5 5.6 332 -999
2008-04-09 07:09:45 51°13.825 2°55.637 153.8 5.6 334 -999
2008-04-09 07:09:50 51°13.832 2°55.632 156.5 5.5 336 -999
2008-04-09 07:09:55 51°13.839 2°55.628 158.9 5.5 339 -999
2008-04-09 07:10:00 51°13.846 2°55.624 162.2 5.4 342 -999
2008-04-09 07:10:05 51°13.854 2°55.621 165.9 5.4 344 -999
2008-04-09 07:10:10 51°13.861 2°55.618 169.2 5.3 348 -999
2008-04-09 07:10:15 51°13.868 2°55.616 171.9 5.3 351 -999
2008-04-09 07:10:20 51°13.875 2°55.615 175.6 5.3 355 -999
2008-04-09 07:10:25 51°13.883 2°55.615 179.5 5.2 359 -999
2008-04-09 07:10:30 51°13.89 2°55.616 184.2 5.2 3 -999
2008-04-09 07:10:35 51°13.897 2°55.617 187.3 5.2 6 -999
2008-04-09 07:10:40 51°13.904 2°55.619 191.4 5 10 -999
2008-04-09 07:10:45 51°13.91 2°55.622 195.1 4.6 13 -999
2008-04-09 07:10:50 51°13.916 2°55.625 199.1 4.4 14 -999
2008-04-09 07:10:55 51°13.921 2°55.627 201.6 4.2 17 -999
2008-04-09 07:11:00 51°13.927 2°55.63 203.3 4 18 -999
2008-04-09 07:11:05 51°13.932 2°55.633 205.9 3.8 20 -999
2008-04-09 07:11:10 51°13.936 2°55.636 207.8 3.6 23 -999
2008-04-09 07:11:15 51°13.941 2°55.639 209.3 3.5 24 -999
2008-04-09 07:11:20 51°13.945 2°55.642 211.1 3.2 25 -999
2008-04-09 07:11:25 51°13.948 2°55.645 212.6 3 27 -999
2008-04-09 07:11:30 51°13.952 2°55.647 215 2.8 28 10.1
2008-04-09 07:11:35 51°13.955 2°55.65 217.6 2.5 30 -999
2008-04-09 07:11:40 51°13.957 2°55.653 220.2 2.3 31 -999
2008-04-09 07:11:45 51°13.96 2°55.655 223.5 2 32 -999
2008-04-09 07:11:50 51°13.962 2°55.656 226.7 1.5 32 -999
2008-04-09 07:11:55 51°13.963 2°55.657 229.3 1.1 23 6.5
2008-04-09 07:12:00 51°13.963 2°55.656 232.7 0.5 332 8.7
2008-04-09 07:12:05 51°13.963 2°55.654 238.5 1 274 -999
2008-04-09 07:12:10 51°13.963 2°55.651 247.8 1.3 274 -999
2008-04-09 07:12:15 51°13.964 2°55.648 257.8 1.5 277 -999
2008-04-09 07:12:20 51°13.964 2°55.644 263.5 1.6 282 -999
2008-04-09 07:12:25 51°13.965 2°55.639 270.8 2.2 284 -999
2008-04-09 07:12:30 51°13.966 2°55.633 276.6 2.8 287 -999
2008-04-09 07:12:35 51°13.968 2°55.626 282.2 3.3 294 -999
2008-04-09 07:12:40 51°13.97 2°55.619 287.4 3.8 293 -999
2008-04-09 07:12:45 51°13.973 2°55.611 290.7 4.1 299 10.2
2008-04-09 07:12:50 51°13.976 2°55.602 294.7 4.5 299 -999
2008-04-09 07:12:55 51°13.979 2°55.593 297.7 4.8 303 -999
2008-04-09 07:13:00 51°13.983 2°55.584 300.3 5.2 304 -999
2008-04-09 07:13:05 51°13.988 2°55.574 302.7 5.5 307 -999
2008-04-09 07:13:10 51°13.993 2°55.564 305.4 5.8 308 -999
2008-04-09 07:13:15 51°13.998 2°55.553 307 6.1 310 -999
2008-04-09 07:13:20 51°14.004 2°55.543 309.2 6.4 312 -999
2008-04-09 07:13:25 51°14.01 2°55.533 311.4 6.5 314 -999
2008-04-09 07:13:30 51°14.017 2°55.522 313.8 6.7 317 10
2008-04-09 07:13:35 51°14.025 2°55.512 316.6 6.9 320 -999
2008-04-09 07:13:40 51°14.032 2°55.503 319.4 7 322 -999
2008-04-09 07:13:45 51°14.041 2°55.494 322.4 7.2 325 -999
2008-04-09 07:13:50 51°14.049 2°55.485 324.7 7.3 326 -999
2008-04-09 07:13:55 51°14.057 2°55.476 326.6 7.3 327 -999
2008-04-09 07:14:00 51°14.066 2°55.467 327.7 7.5 327 -999
2008-04-09 07:14:05 51°14.075 2°55.458 327.7 7.6 327 -999
2008-04-09 07:14:10 51°14.084 2°55.448 327.2 7.7 327 -999
2008-04-09 07:14:15 51°14.093 2°55.439 327.2 7.7 328 -999
2008-04-09 07:14:20 51°14.102 2°55.431 328.3 7.7 330 -999
2008-04-09 07:14:25 51°14.112 2°55.422 329.9 7.8 331 -999
2008-04-09 07:14:30 51°14.121 2°55.414 331.8 7.9 333 -999
2008-04-09 07:14:35 51°14.131 2°55.406 332.7 7.9 331 -999
2008-04-09 07:14:40 51°14.14 2°55.398 332.2 7.9 330 -999
2008-04-09 07:14:45 51°14.15 2°55.389 331.5 7.9 331 -999
2008-04-09 07:14:50 51°14.159 2°55.38 331.1 8 330 10.2
2008-04-09 07:14:55 51°14.169 2°55.371 330.9 8 329 -999
2008-04-09 07:15:00 51°14.178 2°55.362 330 7.9 328 -999
2008-04-09 07:15:05 51°14.187 2°55.353 327.5 8 326 -999
2008-04-09 07:15:10 51°14.196 2°55.343 325.8 8 325 -999
2008-04-09 07:15:15 51°14.205 2°55.332 325.1 8 324 -999
2008-04-09 07:15:20 51°14.214 2°55.322 323.7 8 323 -999
2008-04-09 07:15:25 51°14.223 2°55.311 322.5 8 322 -999
2008-04-09 07:15:30 51°14.231 2°55.3 321.7 8 321 -999
2008-04-09 07:15:35 51°14.24 2°55.288 320.2 8 319 -999
2008-04-09 07:15:40 51°14.248 2°55.276 318.5 8 318 9.8
2008-04-09 07:15:45 51°14.256 2°55.264 317.7 8 317 -999
2008-04-09 07:15:50 51°14.264 2°55.251 317.2 8 316 9.4
2008-04-09 07:15:55 51°14.271 2°55.239 316.6 8 315 9.2
2008-04-09 07:16:00 51°14.279 2°55.226 315.7 8 314 9.4
2008-04-09 07:16:04 51°14.285 2°55.216 314.8 8 313 9.2
2008-04-09 07:16:09 51°14.293 2°55.203 313.7 8.1 312 9.3
2008-04-09 07:16:14 51°14.3 2°55.189 312.5 8.1 310 9
2008-04-09 07:16:19 51°14.307 2°55.176 311.4 8.1 310 9.3
2008-04-09 07:16:24 51°14.315 2°55.162 310.9 8.1 310 9.4
2008-04-09 07:16:29 51°14.322 2°55.148 310.2 8.2 309 9.4
2008-04-09 07:16:34 51°14.329 2°55.133 309.5 8.3 307 9.4
2008-04-09 07:16:38 51°14.334 2°55.121 307.9 8.3 307 9.5
2008-04-09 07:16:43 51°14.341 2°55.106 306.6 8.5 306 9.5
2008-04-09 07:16:48 51°14.348 2°55.091 305.8 8.6 306 9.8
2008-04-09 07:16:53 51°14.355 2°55.075 305.5 8.8 306 10
2008-04-09 07:16:58 51°14.363 2°55.058 305.5 9.3 305 10.5
2008-04-09 07:17:02 51°14.369 2°55.044 305.5 9.5 304 10.1
2008-04-09 07:17:07 51°14.376 2°55.025 304.2 9.8 303 9.6
2008-04-09 07:17:12 51°14.384 2°55.006 302.9 10.1 302 9.1
2008-04-09 07:17:17 51°14.392 2°54.987 303.1 10.2 303 9.1
2008-04-09 07:17:22 51°14.399 2°54.967 303.5 10.3 302 9.2
2008-04-09 07:17:27 51°14.407 2°54.948 303.3 10.4 303 9.3
2008-04-09 07:17:31 51°14.413 2°54.932 303.2 10.6 303 9.4
2008-04-09 07:17:36 51°14.423 2°54.913 306.4 10.7 308 9.5
2008-04-09 07:17:41 51°14.433 2°54.895 311.2 10.7 312 9.5
2008-04-09 07:17:46 51°14.443 2°54.879 316 10.7 316 9.6
2008-04-09 07:17:51 51°14.455 2°54.863 319.6 10.7 319 9.5
2008-04-09 07:17:57 51°14.469 2°54.847 324.1 10.8 322 9.5
2008-04-09 07:18:02 51°14.482 2°54.833 328 10.8 326 9.3
2008-04-09 07:18:06 51°14.492 2°54.824 330.9 10.8 330 9.6
2008-04-09 07:18:11 51°14.505 2°54.813 335.5 10.8 332 9.1
2008-04-09 07:18:16 51°14.519 2°54.803 338.7 10.8 333 9.2
2008-04-09 07:18:22 51°14.535 2°54.791 340.4 10.7 335 8.8
2008-04-09 07:18:26 51°14.546 2°54.784 342.9 10.6 338 8.9
2008-04-09 07:18:31 51°14.56 2°54.777 346.4 10.5 342 8.6
2008-04-09 07:18:37 51°14.577 2°54.769 350.1 10.5 343 8.7
2008-04-09 07:18:42 51°14.591 2°54.764 351.8 10.5 346 8.6
2008-04-09 07:18:46 51°14.602 2°54.76 354.6 10.5 348 8.6
2008-04-09 07:18:51 51°14.616 2°54.756 355.9 10.5 349 8.6
2008-04-09 07:18:57 51°14.634 2°54.752 357.4 10.4 351 8.5
2008-04-09 07:19:02 51°14.648 2°54.75 359.2 10.4 354 8.6
2008-04-09 07:19:06 51°14.659 2°54.749 2 10.3 357 8.5
2008-04-09 07:19:11 51°14.673 2°54.749 4.9 10.3 359 8.4
2008-04-09 07:19:16 51°14.687 2°54.75 7.8 10.1 1 8.5
2008-04-09 07:19:22 51°14.704 2°54.751 9.3 10.2 3 8.3
2008-04-09 07:19:26 51°14.715 2°54.753 10.3 10.1 4 8.5
2008-04-09 07:19:31 51°14.73 2°54.755 11.2 10.1 5 8.4
2008-04-09 07:19:37 51°14.746 2°54.757 12.2 10.2 5 8.4
2008-04-09 07:19:41 51°14.757 2°54.759 13 10.1 5 8.3
2008-04-09 07:19:46 51°14.771 2°54.761 12.2 10.1 4 8.3
2008-04-09 07:19:51 51°14.785 2°54.762 10.9 10.1 3 8.3
2008-04-09 07:19:56 51°14.799 2°54.763 9.9 10.1 2 8.2
2008-04-09 07:20:02 51°14.816 2°54.764 9.6 10.1 2 8.2
2008-04-09 07:20:06 51°14.828 2°54.764 9.3 10.1 2 8.3
2008-04-09 07:20:11 51°14.842 2°54.765 9.3 10.1 2 8.2
2008-04-09 07:20:17 51°14.858 2°54.766 9.3 10.1 2 8.2
2008-04-09 07:20:22 51°14.873 2°54.767 9.3 10.1 2 8.4
2008-04-09 07:20:26 51°14.884 2°54.767 9.3 10.1 2 8.1
2008-04-09 07:20:31 51°14.898 2°54.768 9.3 10.1 2 7.9
2008-04-09 07:20:36 51°14.912 2°54.769 9.6 10.1 3 8
2008-04-09 07:20:41 51°14.925 2°54.77 9.6 10.1 3 7.9
2008-04-09 07:20:46 51°14.939 2°54.771 9.8 10 3 7.9
2008-04-09 07:20:51 51°14.953 2°54.772 9.9 10.1 2 7.9
2008-04-09 07:20:56 51°14.967 2°54.774 9.9 10.1 3 8
2008-04-09 07:21:01 51°14.981 2°54.775 9.9 10.1 3 7.9
2008-04-09 07:21:06 51°14.995 2°54.776 9.9 10.1 4 7.8
2008-04-09 07:21:11 51°15.009 2°54.777 10.1 10 4 7.8
2008-04-09 07:21:16 51°15.023 2°54.778 10.2 10 4 7.5
2008-04-09 07:21:21 51°15.037 2°54.779 10 10.1 3 7.5
2008-04-09 07:21:26 51°15.051 2°54.781 9.8 10.1 3 7.3
2008-04-09 07:21:31 51°15.065 2°54.782 9.8 10 3 7.3
2008-04-09 07:21:36 51°15.079 2°54.783 10 10 4 7.2
2008-04-09 07:21:41 51°15.092 2°54.785 10.1 10 4 7.2
2008-04-09 07:21:46 51°15.106 2°54.786 10.3 9.9 4 5.3
2008-04-09 07:21:51 51°15.12 2°54.788 10.5 9.9 5 7
2008-04-09 07:21:56 51°15.134 2°54.79 10.8 9.9 5 7
2008-04-09 07:22:01 51°15.147 2°54.794 12.2 9.9 8 7
2008-04-09 07:22:06 51°15.161 2°54.796 13.1 9.9 7 7
2008-04-09 07:22:11 51°15.175 2°54.799 13.6 9.9 8 7
2008-04-09 07:22:16 51°15.188 2°54.802 14.3 9.9 8 7
2008-04-09 07:22:21 51°15.202 2°54.806 14.5 9.9 8 7
2008-04-09 07:22:26 51°15.216 2°54.809 14.6 9.9 9 7
2008-04-09 07:22:31 51°15.229 2°54.812 14.4 10 9 5.3
2008-04-09 07:22:36 51°15.243 2°54.816 14.9 10 10 7.1
2008-04-09 07:22:41 51°15.256 2°54.822 17.3 9.9 15 5.4
2008-04-09 07:22:46 51°15.269 2°54.828 20.1 9.9 16 7.1
2008-04-09 07:22:51 51°15.282 2°54.835 21.7 9.9 18 7.1
2008-04-09 07:22:56 51°15.295 2°54.841 22.4 9.8 18 7.2
2008-04-09 07:23:01 51°15.308 2°54.848 23.1 9.9 19 7.2
2008-04-09 07:23:06 51°15.321 2°54.855 23.9 9.9 19 5.4
2008-04-09 07:23:11 51°15.334 2°54.863 24.2 9.9 21 7.3
2008-04-09 07:23:16 51°15.346 2°54.871 25.3 9.8 21 7.4
2008-04-09 07:23:21 51°15.359 2°54.881 27.7 9.7 27 7.4
2008-04-09 07:23:26 51°15.371 2°54.89 30.2 9.8 26 7.4
2008-04-09 07:23:31 51°15.383 2°54.9 31.2 9.8 29 -999
2008-04-09 07:23:36 51°15.395 2°54.911 32.6 9.7 28 7.5
2008-04-09 07:23:41 51°15.406 2°54.921 32.9 9.7 29 7.5
2008-04-09 07:23:46 51°15.418 2°54.932 33.5 9.7 29 5.5
2008-04-09 07:23:51 51°15.43 2°54.943 33.9 9.7 30 7.5
2008-04-09 07:23:56 51°15.442 2°54.953 34.5 9.8 30 7.5
2008-04-09 07:24:01 51°15.453 2°54.964 34.3 9.8 29 7.5
2008-04-09 07:24:06 51°15.465 2°54.975 34 9.8 30 7.6
2008-04-09 07:24:11 51°15.477 2°54.985 34 9.8 29 7.6
2008-04-09 07:24:16 51°15.489 2°54.996 33.9 9.8 29 7.6
2008-04-09 07:24:21 51°15.501 2°55.006 34 9.8 30 7.6
2008-04-09 07:24:26 51°15.513 2°55.017 34.6 9.8 30 7.7
2008-04-09 07:24:31 51°15.524 2°55.028 34.7 9.8 30 7.7
2008-04-09 07:24:36 51°15.536 2°55.039 34.1 9.8 29 7.7
2008-04-09 07:24:41 51°15.548 2°55.049 33.9 9.8 30 7.7
2008-04-09 07:24:46 51°15.56 2°55.059 33.7 9.8 28 7.7
2008-04-09 07:24:51 51°15.572 2°55.07 33.4 9.8 30 7.7
2008-04-09 07:24:56 51°15.584 2°55.081 34 9.8 30 7.8
2008-04-09 07:25:01 51°15.595 2°55.092 35.1 9.7 31 7.8
2008-04-09 07:25:06 51°15.607 2°55.103 34.9 9.7 30 7.8
2008-04-09 07:25:11 51°15.619 2°55.113 34.4 9.7 29 7.8
2008-04-09 07:25:16 51°15.63 2°55.124 34 9.8 29 7.9
2008-04-09 07:25:21 51°15.643 2°55.134 33.9 9.8 28 8
2008-04-09 07:25:26 51°15.655 2°55.144 33.3 9.8 28 7.9
2008-04-09 07:25:31 51°15.667 2°55.154 32.7 9.8 27 8
2008-04-09 07:25:36 51°15.679 2°55.163 32.3 9.8 27 8.1
2008-04-09 07:25:41 51°15.691 2°55.173 32.3 9.8 27 8.1
2008-04-09 07:25:46 51°15.703 2°55.183 32.6 9.8 26 8.1
2008-04-09 07:25:51 51°15.715 2°55.193 32.6 9.7 27 8.2
2008-04-09 07:25:56 51°15.727 2°55.202 32.6 9.8 26 8.2
2008-04-09 07:26:01 51°15.739 2°55.212 32.9 9.7 28 8.2
2008-04-09 07:26:06 51°15.751 2°55.222 33.1 9.7 27 8.3
2008-04-09 07:26:11 51°15.763 2°55.231 32.9 9.7 27 8.2
2008-04-09 07:26:16 51°15.775 2°55.241 32.5 9.7 27 8.3
2008-04-09 07:26:21 51°15.787 2°55.251 32.5 9.7 27 8.3
2008-04-09 07:26:26 51°15.799 2°55.26 32.4 9.7 26 8.3
2008-04-09 07:26:31 51°15.811 2°55.27 32.4 9.7 27 8.4
2008-04-09 07:26:36 51°15.823 2°55.279 32.8 9.8 26 8.4
2008-04-09 07:26:41 51°15.836 2°55.289 32.6 9.8 26 8.4
2008-04-09 07:26:46 51°15.848 2°55.299 32.5 9.7 26 8.3
2008-04-09 07:26:51 51°15.86 2°55.308 32.6 9.7 27 8.3
2008-04-09 07:26:56 51°15.872 2°55.318 32.6 9.7 26 8.5
2008-04-09 07:27:01 51°15.884 2°55.327 32.1 9.7 26 8.4
2008-04-09 07:27:06 51°15.896 2°55.337 32.2 9.7 26 8.5
2008-04-09 07:27:11 51°15.908 2°55.346 32.3 9.7 26 8.5
2008-04-09 07:27:16 51°15.921 2°55.355 32.3 9.8 25 8.5
2008-04-09 07:27:21 51°15.933 2°55.364 32.1 9.8 25 8.5
2008-04-09 07:27:26 51°15.945 2°55.374 32.1 9.7 25 8.4
2008-04-09 07:27:31 51°15.957 2°55.383 32.1 9.7 25 8.5
2008-04-09 07:27:36 51°15.969 2°55.392 32.2 9.7 25 8.7
2008-04-09 07:27:41 51°15.981 2°55.402 32.3 9.7 26 8.6
2008-04-09 07:27:46 51°15.994 2°55.411 32.5 9.7 25 8.6
2008-04-09 07:27:51 51°16.006 2°55.42 32.4 9.8 25 8.6
2008-04-09 07:27:56 51°16.018 2°55.429 32.3 9.7 25 8.7
2008-04-09 07:28:01 51°16.03 2°55.439 32.3 9.7 26 8.6
2008-04-09 07:28:06 51°16.043 2°55.448 32.3 9.7 25 8.6
2008-04-09 07:28:11 51°16.055 2°55.457 32.5 9.7 26 8.7
2008-04-09 07:28:16 51°16.067 2°55.466 32.6 9.7 25 8.7
2008-04-09 07:28:21 51°16.079 2°55.475 32.5 9.7 25 8.8
2008-04-09 07:28:26 51°16.091 2°55.484 32.6 9.7 25 8.7
2008-04-09 07:28:31 51°16.103 2°55.493 32.5 9.7 25 8.8
2008-04-09 07:28:36 51°16.116 2°55.503 32.7 9.7 25 8.8
2008-04-09 07:28:41 51°16.128 2°55.512 32.6 9.7 25 8.8
2008-04-09 07:28:46 51°16.14 2°55.521 32.6 9.7 25 8.7
2008-04-09 07:28:51 51°16.152 2°55.53 32.5 9.7 25 8.8
2008-04-09 07:28:56 51°16.164 2°55.539 32.6 9.7 25 8.9
2008-04-09 07:29:01 51°16.176 2°55.548 32.7 9.7 25 8.8
2008-04-09 07:29:06 51°16.189 2°55.557 32.7 9.7 25 8.9
2008-04-09 07:29:11 51°16.201 2°55.566 32.4 9.7 25 9
2008-04-09 07:29:16 51°16.213 2°55.576 33.2 9.6 28 8.9
2008-04-09 07:29:21 51°16.225 2°55.586 34.7 9.7 27 8.8
2008-04-09 07:29:26 51°16.236 2°55.596 35.3 9.6 28 8.9
2008-04-09 07:29:31 51°16.248 2°55.605 35 9.6 27 8.9
2008-04-09 07:29:36 51°16.26 2°55.615 35.1 9.7 28 8.9
2008-04-09 07:29:41 51°16.272 2°55.625 35 9.6 27 8.9
2008-04-09 07:29:46 51°16.284 2°55.635 35 9.6 27 8.9
2008-04-09 07:29:51 51°16.296 2°55.644 34.9 9.6 27 8.9
2008-04-09 07:29:56 51°16.308 2°55.654 34.7 9.6 26 8.9
2008-04-09 07:30:01 51°16.319 2°55.663 34.6 9.6 27 9
2008-04-09 07:30:06 51°16.331 2°55.673 34.6 9.6 27 8.8
2008-04-09 07:30:11 51°16.343 2°55.682 34.5 9.6 27 8.9
2008-04-09 07:30:16 51°16.355 2°55.692 34.9 9.6 27 9
2008-04-09 07:30:21 51°16.367 2°55.701 34.6 9.5 26 8.9
2008-04-09 07:30:26 51°16.379 2°55.71 34.7 9.5 26 8.8
2008-04-09 07:30:31 51°16.391 2°55.72 34.6 9.5 27 8.8
2008-04-09 07:30:36 51°16.403 2°55.729 34.7 9.5 27 8.9
2008-04-09 07:30:41 51°16.414 2°55.739 34.7 9.5 27 8.9
2008-04-09 07:30:46 51°16.426 2°55.748 34.9 9.6 26 8.9
2008-04-09 07:30:51 51°16.438 2°55.758 34.8 9.6 27 8.9
2008-04-09 07:30:56 51°16.45 2°55.767 34.7 9.6 26 8.9
2008-04-09 07:31:01 51°16.462 2°55.776 34.7 9.6 26 8.8
2008-04-09 07:31:06 51°16.474 2°55.786 34.7 9.6 26 8.8
2008-04-09 07:31:11 51°16.486 2°55.795 34.7 9.6 27 8.9
2008-04-09 07:31:16 51°16.497 2°55.805 34.7 9.6 26 8.8
2008-04-09 07:31:21 51°16.509 2°55.814 34.7 9.6 26 8.8
2008-04-09 07:31:26 51°16.521 2°55.823 34.4 9.6 26 8.9
2008-04-09 07:31:31 51°16.533 2°55.832 34.2 9.5 26 8.9
2008-04-09 07:31:36 51°16.545 2°55.843 35.4 9.5 29 8.8
2008-04-09 07:31:41 51°16.556 2°55.853 36.1 9.5 28 8.9
2008-04-09 07:31:46 51°16.568 2°55.863 37 9.5 31 8.9
2008-04-09 07:31:51 51°16.579 2°55.874 37.6 9.5 30 8.8
2008-04-09 07:31:56 51°16.59 2°55.884 37.7 9.5 31 8.8
2008-04-09 07:32:01 51°16.602 2°55.895 38 9.5 30 8.8
2008-04-09 07:32:06 51°16.613 2°55.906 38.2 9.5 31 8.7
2008-04-09 07:32:11 51°16.625 2°55.916 37.6 9.5 29 8.7
2008-04-09 07:32:16 51°16.636 2°55.927 37.5 9.5 30 8.7
2008-04-09 07:32:21 51°16.647 2°55.937 37.5 9.5 30 8.7
2008-04-09 07:32:26 51°16.659 2°55.948 37.6 9.5 31 8.7
2008-04-09 07:32:31 51°16.67 2°55.958 37.6 9.5 30 8.7
2008-04-09 07:32:36 51°16.682 2°55.969 37.8 9.5 30 8.7
2008-04-09 07:32:41 51°16.693 2°55.979 37.3 9.5 30 8.7
2008-04-09 07:32:46 51°16.704 2°55.989 37.2 9.5 29 8.7
2008-04-09 07:32:51 51°16.716 2°56 37.1 9.5 30 8.7
2008-04-09 07:32:56 51°16.727 2°56.01 37.1 9.4 30 8.6
2008-04-09 07:33:01 51°16.739 2°56.021 37.5 9.5 31 8.7
2008-04-09 07:33:06 51°16.75 2°56.032 37.9 9.5 31 8.6
2008-04-09 07:33:11 51°16.761 2°56.043 38.5 9.5 31 8.6
2008-04-09 07:33:16 51°16.772 2°56.053 38.6 9.5 31 8.7
2008-04-09 07:33:21 51°16.784 2°56.064 38.2 9.5 30 8.6
2008-04-09 07:33:26 51°16.795 2°56.075 37.7 9.5 30 8.6
2008-04-09 07:33:31 51°16.806 2°56.085 37.1 9.5 29 8.6
2008-04-09 07:33:36 51°16.818 2°56.095 36.9 9.4 30 8.6
2008-04-09 07:33:41 51°16.829 2°56.106 37 9.5 31 8.6
2008-04-09 07:33:46 51°16.841 2°56.116 37.2 9.5 29 8.6
2008-04-09 07:33:51 51°16.852 2°56.127 36.9 9.5 30 8.5
2008-04-09 07:33:56 51°16.863 2°56.137 37.5 9.5 31 8.5
2008-04-09 07:34:01 51°16.875 2°56.148 38.3 9.5 31 8.5
2008-04-09 07:34:06 51°16.886 2°56.159 38.5 9.5 31 8.4
2008-04-09 07:34:11 51°16.897 2°56.17 37.9 9.5 30 8.5
2008-04-09 07:34:16 51°16.909 2°56.181 37.6 9.5 31 8.5
2008-04-09 07:34:21 51°16.92 2°56.191 37.3 9.6 30 8.4
2008-04-09 07:34:26 51°16.932 2°56.202 37.2 9.6 30 8.4
2008-04-09 07:34:31 51°16.943 2°56.212 36.9 9.5 30 8.5
2008-04-09 07:34:36 51°16.955 2°56.223 36.8 9.5 30 8.5
2008-04-09 07:34:41 51°16.966 2°56.233 36.8 9.5 30 8.4
2008-04-09 07:34:46 51°16.977 2°56.245 37.4 9.6 32 8.5
2008-04-09 07:34:51 51°16.988 2°56.256 38.3 9.6 33 8.4
2008-04-09 07:34:56 51°16.999 2°56.268 39.1 9.6 35 8.4
2008-04-09 07:35:01 51°17.01 2°56.281 40 9.7 35 8.4
2008-04-09 07:35:06 51°17.021 2°56.293 39.9 9.7 35 8.4
2008-04-09 07:35:11 51°17.032 2°56.306 40 9.7 36 8.3
2008-04-09 07:35:16 51°17.043 2°56.318 39.9 9.7 35 8.4
2008-04-09 07:35:21 51°17.054 2°56.33 39.9 9.7 35 8.3
2008-04-09 07:35:26 51°17.065 2°56.343 40 9.7 35 8.4
2008-04-09 07:35:31 51°17.076 2°56.355 39.8 9.7 35 8.4
2008-04-09 07:35:36 51°17.088 2°56.367 39.5 9.7 34 8.4
2008-04-09 07:35:41 51°17.099 2°56.379 39.2 9.8 34 8.3
2008-04-09 07:35:46 51°17.11 2°56.391 39.5 9.8 35 8.4
2008-04-09 07:35:51 51°17.121 2°56.403 39.1 9.8 34 8.3
2008-04-09 07:35:56 51°17.132 2°56.416 39.3 9.7 35 8.3
2008-04-09 07:36:01 51°17.144 2°56.428 39.4 9.7 35 8.4
2008-04-09 07:36:06 51°17.155 2°56.441 39.9 9.8 35 8.4
2008-04-09 07:36:11 51°17.165 2°56.454 40.4 9.8 36 8.4
2008-04-09 07:36:16 51°17.176 2°56.467 40.9 9.8 36 8.3
2008-04-09 07:36:21 51°17.187 2°56.48 41.6 9.7 37 8.4
2008-04-09 07:36:26 51°17.198 2°56.493 41.6 9.7 37 8.4
2008-04-09 07:36:31 51°17.209 2°56.505 41.6 9.8 37 8.4
2008-04-09 07:36:36 51°17.219 2°56.519 41.8 9.8 37 8.3
2008-04-09 07:36:41 51°17.23 2°56.531 41.3 9.8 36 8.3
2008-04-09 07:36:46 51°17.241 2°56.544 41.1 9.8 36 8.3
2008-04-09 07:36:51 51°17.252 2°56.556 41 9.8 35 8.4
2008-04-09 07:36:56 51°17.263 2°56.569 40.8 9.8 36 8.4
2008-04-09 07:37:01 51°17.275 2°56.582 40.6 9.8 35 8.4
2008-04-09 07:37:06 51°17.286 2°56.594 40.3 9.8 35 8.4
2008-04-09 07:37:11 51°17.297 2°56.606 39.8 9.8 34 8.4
2008-04-09 07:37:16 51°17.308 2°56.618 39 9.8 33 8.5
2008-04-09 07:37:21 51°17.32 2°56.63 38.7 9.8 33 8.5
2008-04-09 07:37:26 51°17.331 2°56.641 38.4 9.7 32 8.4
2008-04-09 07:37:31 51°17.343 2°56.652 37.9 9.7 32 8.4
2008-04-09 07:37:36 51°17.355 2°56.664 37.2 9.8 31 8.4
2008-04-09 07:37:41 51°17.366 2°56.675 36.7 9.8 31 8.3
2008-04-09 07:37:46 51°17.378 2°56.685 36.4 9.7 30 8.4
2008-04-09 07:37:51 51°17.389 2°56.697 36.2 9.7 32 8.5
2008-04-09 07:37:56 51°17.401 2°56.707 36.9 9.8 30 8.5
2008-04-09 07:38:01 51°17.413 2°56.718 36.9 9.8 31 8.5
2008-04-09 07:38:06 51°17.425 2°56.729 36.5 9.7 30 8.5
2008-04-09 07:38:11 51°17.436 2°56.74 36.3 9.7 30 8.5
2008-04-09 07:38:16 51°17.448 2°56.751 36.3 9.8 30 8.5
2008-04-09 07:38:21 51°17.46 2°56.761 36.3 9.7 30 8.5
2008-04-09 07:38:26 51°17.471 2°56.772 36.2 9.7 30 8.5
2008-04-09 07:38:31 51°17.483 2°56.783 36.3 9.7 31 8.4
2008-04-09 07:38:36 51°17.495 2°56.793 36.6 9.7 30 8.5
2008-04-09 07:38:41 51°17.507 2°56.804 36.7 9.7 31 8.5
2008-04-09 07:38:46 51°17.518 2°56.815 36.6 9.8 30 8.5
2008-04-09 07:38:51 51°17.53 2°56.826 36.9 9.7 31 8.5
2008-04-09 07:38:56 51°17.542 2°56.837 36.9 9.7 30 8.5
2008-04-09 07:39:01 51°17.553 2°56.847 36.7 9.7 30 8.5
2008-04-09 07:39:06 51°17.565 2°56.858 36.6 9.7 30 8.5
2008-04-09 07:39:11 51°17.577 2°56.868 36.6 9.7 30 8.6
2008-04-09 07:39:16 51°17.588 2°56.879 36.9 9.6 30 8.5
2008-04-09 07:39:21 51°17.6 2°56.89 36.9 9.6 30 8.5
2008-04-09 07:39:26 51°17.611 2°56.901 37.1 9.6 30 8.5
2008-04-09 07:39:31 51°17.623 2°56.911 37.1 9.7 30 8.6
2008-04-09 07:39:36 51°17.634 2°56.922 36.9 9.6 31 8.5
2008-04-09 07:39:41 51°17.646 2°56.933 37.1 9.6 30 8.6
2008-04-09 07:39:46 51°17.657 2°56.944 37.5 9.6 31 8.5
2008-04-09 07:39:51 51°17.668 2°56.955 37.5 9.6 30 8.5
2008-04-09 07:39:56 51°17.68 2°56.966 37 9.6 31 8.5
2008-04-09 07:40:01 51°17.691 2°56.977 37.2 9.6 31 8.5
2008-04-09 07:40:06 51°17.703 2°56.987 37.1 9.6 30 8.5
2008-04-09 07:40:11 51°17.715 2°56.998 36.9 9.6 30 8.5
2008-04-09 07:40:16 51°17.726 2°57.008 36.6 9.5 30 8.6
2008-04-09 07:40:21 51°17.737 2°57.018 36.5 8.9 30 8.6
2008-04-09 07:40:26 51°17.747 2°57.027 36.7 8.2 30 8.5
2008-04-09 07:40:31 51°17.756 2°57.035 37 7.7 29 8.6
2008-04-09 07:40:36 51°17.765 2°57.043 37.5 7 30 8.7
2008-04-09 07:40:41 51°17.772 2°57.05 37.7 6.5 29 8.7
2008-04-09 07:40:46 51°17.78 2°57.057 38.1 6.1 29 8.7
2008-04-09 07:40:51 51°17.786 2°57.063 38.9 5.6 30 8.8
2008-04-09 07:40:56 51°17.792 2°57.069 39.6 5.3 29 8.7
2008-04-09 07:41:01 51°17.798 2°57.074 40.3 4.9 30 8.7
2008-04-09 07:41:06 51°17.803 2°57.079 41.3 4.6 30 8.7
2008-04-09 07:41:11 51°17.809 2°57.084 42 4.3 31 8.7
2008-04-09 07:41:16 51°17.814 2°57.088 43.1 4.1 30 8.7
2008-04-09 07:41:21 51°17.818 2°57.093 43.5 3.8 31 8.8
2008-04-09 07:41:26 51°17.822 2°57.097 44.3 3.6 31 8.7
2008-04-09 07:41:31 51°17.826 2°57.101 44.8 3.4 31 8.7
2008-04-09 07:41:36 51°17.83 2°57.105 45.6 3.3 29 8.6
2008-04-09 07:41:41 51°17.833 2°57.108 46 2.9 33 8.6
2008-04-09 07:41:46 51°17.837 2°57.111 46.9 2.9 30 8.6
2008-04-09 07:41:51 51°17.84 2°57.115 47.1 2.7 34 8.7
2008-04-09 07:41:56 51°17.843 2°57.117 47.8 2.6 31 8.6
2008-04-09 07:42:01 51°17.846 2°57.12 48.1 2.5 34 8.7
2008-04-09 07:42:06 51°17.849 2°57.123 48.8 2.6 32 8.6
2008-04-09 07:42:11 51°17.852 2°57.126 48.7 2.5 33 8.6
2008-04-09 07:42:16 51°17.855 2°57.129 48.5 2.6 29 8.6
2008-04-09 07:42:21 51°17.858 2°57.132 48 2.6 30 8.6
2008-04-09 07:42:26 51°17.862 2°57.135 47 2.6 31 8.7
2008-04-09 07:42:31 51°17.865 2°57.138 46.3 2.7 27 8.6
2008-04-09 07:42:36 51°17.868 2°57.141 44.6 2.7 26 8.7
2008-04-09 07:42:41 51°17.872 2°57.143 43.8 2.7 24 8.7
2008-04-09 07:42:46 51°17.875 2°57.145 42.7 2.8 24 8.7
2008-04-09 07:42:51 51°17.879 2°57.148 41.7 2.9 24 8.6
2008-04-09 07:42:56 51°17.883 2°57.15 41 3 23 8.6
2008-04-09 07:43:01 51°17.887 2°57.153 40.5 3.2 22 8.6
2008-04-09 07:43:06 51°17.892 2°57.156 39.8 3.3 22 8.7
2008-04-09 07:43:11 51°17.896 2°57.159 39.8 3.4 22 8.7
2008-04-09 07:43:16 51°17.9 2°57.162 39.4 3.5 23 8.7
2008-04-09 07:43:21 51°17.905 2°57.165 39.3 3.5 23 8.6
2008-04-09 07:43:26 51°17.909 2°57.168 39.1 3.6 23 8.6
2008-04-09 07:43:31 51°17.914 2°57.171 39.1 3.7 22 8.6
2008-04-09 07:43:36 51°17.919 2°57.174 39 3.7 24 8.6
2008-04-09 07:43:41 51°17.924 2°57.177 39 3.8 22 8.6
2008-04-09 07:43:46 51°17.929 2°57.181 38.8 3.8 24 8.6
2008-04-09 07:43:51 51°17.934 2°57.184 38.7 3.9 21 8.6
2008-04-09 07:43:56 51°17.939 2°57.188 38.5 3.9 24 8.6
2008-04-09 07:44:01 51°17.944 2°57.191 38.4 3.9 22 8.6
2008-04-09 07:44:06 51°17.949 2°57.194 38.3 4 23 8.5
2008-04-09 07:44:11 51°17.954 2°57.197 38.3 4 22 8.6
2008-04-09 07:44:16 51°17.959 2°57.201 38.6 3.9 27 8.5
2008-04-09 07:44:21 51°17.964 2°57.205 39.7 4 25 8.5
2008-04-09 07:44:26 51°17.969 2°57.209 40.9 4 28 8.5
2008-04-09 07:44:31 51°17.974 2°57.213 42.2 3.9 28 8.5
2008-04-09 07:44:36 51°17.979 2°57.218 43.7 4.1 32 8.4
2008-04-09 07:44:41 51°17.984 2°57.223 44.9 4.5 33 8.4
2008-04-09 07:44:46 51°17.989 2°57.23 47.4 4.8 39 8.4
2008-04-09 07:44:51 51°17.994 2°57.237 48.8 5 40 8.4
2008-04-09 07:44:56 51°17.999 2°57.245 50.8 5.2 43 8.4
2008-04-09 07:45:01 51°18.005 2°57.253 52.3 5.4 43 8.4
2008-04-09 07:45:06 51°18.01 2°57.262 52.7 5.6 45 8.3
2008-04-09 07:45:11 51°18.017 2°57.27 51.7 5.8 40 8.2
2008-04-09 07:45:16 51°18.023 2°57.279 49.7 6 39 8.3
2008-04-09 07:45:21 51°18.03 2°57.287 47.4 6.1 36 8.3
2008-04-09 07:45:26 51°18.037 2°57.294 44.7 6.2 33 8.4
2008-04-09 07:45:31 51°18.045 2°57.301 41.9 6.4 28 8.3
2008-04-09 07:45:36 51°18.053 2°57.307 38.9 6.5 26 8.3
2008-04-09 07:45:41 51°18.062 2°57.313 35.8 6.6 21 8.2
2008-04-09 07:45:46 51°18.07 2°57.317 32.5 6.7 19 8.3
2008-04-09 07:45:51 51°18.08 2°57.322 29.1 6.8 17 8.2
2008-04-09 07:45:56 51°18.089 2°57.326 27.3 6.8 18 8.2
2008-04-09 07:46:01 51°18.097 2°57.332 29.5 6.5 26 8.1
2008-04-09 07:46:06 51°18.104 2°57.34 36.3 6.1 36 8.1
2008-04-09 07:46:11 51°18.109 2°57.349 44.9 5.8 45 8.1
2008-04-09 07:46:16 51°18.113 2°57.36 53.2 5.7 55 8.1
2008-04-09 07:46:21 51°18.117 2°57.371 60.5 5.7 61 8.1
2008-04-09 07:46:26 51°18.12 2°57.383 65.4 5.7 67 8.1
2008-04-09 07:46:31 51°18.123 2°57.395 69.2 5.7 70 8.2
2008-04-09 07:46:36 51°18.125 2°57.405 70.7 5.4 70 8.2
2008-04-09 07:46:41 51°18.128 2°57.416 71 4.8 71 8.2
2008-04-09 07:46:46 51°18.129 2°57.425 71.9 4.3 73 8.1
2008-04-09 07:46:51 51°18.13 2°57.433 73.5 3.9 76 8.2
2008-04-09 07:46:56 51°18.131 2°57.441 75.6 3.5 81 8.3
2008-04-09 07:47:01 51°18.132 2°57.447 78.2 3.1 87 8.2
2008-04-09 07:47:06 51°18.131 2°57.453 81.3 2.8 92 8.3
2008-04-09 07:47:11 51°18.131 2°57.459 85 2.4 102 8.3
2008-04-09 07:47:16 51°18.13 2°57.463 88.5 2.1 106 8.2
2008-04-09 07:47:21 51°18.129 2°57.466 92.5 1.8 120 8.3
2008-04-09 07:47:26 51°18.127 2°57.469 96.5 1.6 135 8.3
2008-04-09 07:47:31 51°18.125 2°57.471 100.4 1.4 146 8.3
2008-04-09 07:47:36 51°18.123 2°57.471 105.1 1.4 160 8.3
2008-04-09 07:47:41 51°18.121 2°57.472 109.5 1.4 176 8.3
2008-04-09 07:47:46 51°18.12 2°57.471 113.7 1.4 191 8.3
2008-04-09 07:47:51 51°18.118 2°57.47 117.9 1.4 195 8.2
2008-04-09 07:47:56 51°18.116 2°57.469 121.2 1.5 199 8.3
2008-04-09 07:48:01 51°18.114 2°57.468 124.7 1.5 201 8.3
2008-04-09 07:48:06 51°18.112 2°57.466 127.6 1.7 205 8.2
2008-04-09 07:48:11 51°18.11 2°57.465 130.3 1.7 204 8.3
2008-04-09 07:48:16 51°18.107 2°57.463 132.7 1.7 207 8.4
2008-04-09 07:48:21 51°18.105 2°57.461 134.6 1.8 206 8.3
2008-04-09 07:48:26 51°18.103 2°57.459 136.4 1.8 209 8.3
2008-04-09 07:48:31 51°18.101 2°57.458 137.9 1.8 208 8.3
2008-04-09 07:48:36 51°18.099 2°57.456 139.1 1.9 210 8.3
2008-04-09 07:48:41 51°18.096 2°57.453 140.3 1.8 212 8.3
2008-04-09 07:48:46 51°18.094 2°57.451 141.2 1.9 213 8.4
2008-04-09 07:48:51 51°18.092 2°57.449 142.2 1.8 213 8.4
2008-04-09 07:48:56 51°18.09 2°57.447 142.6 1.9 214 8.3
2008-04-09 07:49:01 51°18.088 2°57.444 143.4 1.9 213 8.4
2008-04-09 07:49:06 51°18.085 2°57.442 143.6 2 214 8.5
2008-04-09 07:49:11 51°18.083 2°57.44 143.9 1.9 214 8.5
2008-04-09 07:49:16 51°18.081 2°57.437 144.1 1.9 217 8.4
2008-04-09 07:49:21 51°18.079 2°57.435 144.1 1.9 216 8.4
2008-04-09 07:49:26 51°18.077 2°57.432 144.3 1.9 218 8.5
2008-04-09 07:49:31 51°18.075 2°57.429 144.3 1.9 216 8.4
2008-04-09 07:49:36 51°18.072 2°57.427 144.3 1.9 216 8.5
2008-04-09 07:49:41 51°18.07 2°57.424 144.2 1.9 219 8.5
2008-04-09 07:49:46 51°18.068 2°57.422 144.3 1.9 218 8.5
2008-04-09 07:49:51 51°18.066 2°57.419 144.3 1.9 221 8.5
2008-04-09 07:49:56 51°18.064 2°57.416 144.3 1.9 220 8.5
2008-04-09 07:50:01 51°18.062 2°57.413 144.3 1.9 221 8.5
2008-04-09 07:50:06 51°18.06 2°57.411 144.1 1.9 220 8.5
2008-04-09 07:50:11 51°18.058 2°57.408 144.2 1.9 223 8.5
2008-04-09 07:50:16 51°18.056 2°57.405 144.2 1.9 222 8.5
2008-04-09 07:50:21 51°18.054 2°57.402 144.2 1.9 223 8.5
2008-04-09 07:50:26 51°18.051 2°57.399 144.2 1.9 220 8.5
2008-04-09 07:50:31 51°18.049 2°57.396 144.2 1.9 221 8.5
2008-04-09 07:50:36 51°18.048 2°57.394 144.2 1.9 223 8.5
2008-04-09 07:50:41 51°18.045 2°57.391 144.3 2 222 8.5
2008-04-09 07:50:46 51°18.043 2°57.388 144.3 1.9 223 8.5
2008-04-09 07:50:51 51°18.042 2°57.384 144.5 1.9 224 8.5
2008-04-09 07:50:56 51°18.04 2°57.381 144.6 1.9 224 8.5
2008-04-09 07:51:01 51°18.038 2°57.378 144.6 1.9 225 8.5
2008-04-09 07:51:06 51°18.036 2°57.375 144.7 1.9 225 8.5
2008-04-09 07:51:11 51°18.034 2°57.372 144.8 1.9 223 8.5
2008-04-09 07:51:16 51°18.032 2°57.369 144.8 1.9 225 8.5
2008-04-09 07:51:21 51°18.03 2°57.366 145 1.9 225 8.5
2008-04-09 07:51:26 51°18.028 2°57.363 145 2 226 8.5
2008-04-09 07:51:31 51°18.026 2°57.36 145.3 1.9 225 8.5
2008-04-09 07:51:36 51°18.025 2°57.357 145.2 1.9 228 8.5
2008-04-09 07:51:41 51°18.023 2°57.354 145.5 1.8 227 8.5
2008-04-09 07:51:46 51°18.021 2°57.351 145.5 2.1 225 8.5
2008-04-09 07:51:51 51°18.019 2°57.348 145.8 1.8 227 8.5
2008-04-09 07:51:56 51°18.017 2°57.345 145.8 2 228 8.5
2008-04-09 07:52:01 51°18.016 2°57.342 146.1 1.8 227 8.5
2008-04-09 07:52:06 51°18.014 2°57.339 146.1 2 228 8.5
2008-04-09 07:52:11 51°18.012 2°57.336 146.4 1.8 227 8.5
2008-04-09 07:52:16 51°18.01 2°57.332 146.5 2.1 228 8.5
2008-04-09 07:52:21 51°18.009 2°57.329 146.7 1.8 228 8.5
2008-04-09 07:52:26 51°18.007 2°57.326 146.9 2 230 8.6
2008-04-09 07:52:31 51°18.005 2°57.323 147.1 1.9 228 8.5
2008-04-09 07:52:36 51°18.003 2°57.32 147.3 2 229 8.5
2008-04-09 07:52:41 51°18.002 2°57.317 147.4 1.9 230 8.5
2008-04-09 07:52:46 51°18 2°57.313 147.7 2 230 8.5
2008-04-09 07:52:51 51°17.998 2°57.31 147.8 1.9 230 8.5
2008-04-09 07:52:56 51°17.997 2°57.307 148 2 231 8.6
2008-04-09 07:53:01 51°17.995 2°57.303 148 1.9 231 8.5
2008-04-09 07:53:06 51°17.993 2°57.3 148.2 2 232 8.5
2008-04-09 07:53:11 51°17.992 2°57.297 148.3 1.8 230 8.5
2008-04-09 07:53:16 51°17.99 2°57.293 148.4 2 231 8.5
2008-04-09 07:53:21 51°17.988 2°57.29 148.5 1.9 233 8.5
2008-04-09 07:53:26 51°17.987 2°57.287 148.6 2 232 8.5
2008-04-09 07:53:31 51°17.985 2°57.284 148.7 1.9 233 8.5
2008-04-09 07:53:36 51°17.983 2°57.28 148.9 2 231 8.5
2008-04-09 07:53:41 51°17.982 2°57.277 148.9 1.9 231 8.5
2008-04-09 07:53:46 51°17.98 2°57.273 149.1 2 233 8.5
2008-04-09 07:53:51 51°17.979 2°57.27 149.3 1.9 231 8.4
2008-04-09 07:53:56 51°17.977 2°57.266 149.4 1.9 234 8.5
2008-04-09 07:54:01 51°17.975 2°57.263 149.5 1.9 232 8.5
2008-04-09 07:54:06 51°17.974 2°57.259 149.6 2 233 8.5
2008-04-09 07:54:11 51°17.972 2°57.256 149.8 1.9 234 8.4
2008-04-09 07:54:16 51°17.97 2°57.252 150 1.9 233 8.5
2008-04-09 07:54:21 51°17.969 2°57.249 150.1 2 233 8.5
2008-04-09 07:54:26 51°17.967 2°57.246 149.9 2 230 8.4
2008-04-09 07:54:31 51°17.966 2°57.243 149.8 1.9 229 8.5
2008-04-09 07:54:36 51°17.964 2°57.239 148.9 1.9 228 8.5
2008-04-09 07:54:41 51°17.962 2°57.236 148 1.9 224 8.4
2008-04-09 07:54:46 51°17.96 2°57.234 145.9 1.9 223 8.4
2008-04-09 07:54:51 51°17.958 2°57.231 144.4 1.8 218 8.4
2008-04-09 07:54:57 51°17.955 2°57.228 142.2 1.9 216 8.5
2008-04-09 07:55:01 51°17.954 2°57.227 140 1.9 208 8.5
2008-04-09 07:55:06 51°17.951 2°57.225 137 1.9 196 8.5
2008-04-09 07:55:11 51°17.948 2°57.225 133.5 2 182 8.5
2008-04-09 07:55:16 51°17.946 2°57.226 126.2 2 165 8.5
2008-04-09 07:55:21 51°17.943 2°57.228 118.9 2 151 8.5
2008-04-09 07:55:26 51°17.941 2°57.231 111.3 2 139 8.5
2008-04-09 07:55:31 51°17.939 2°57.235 103.6 2.1 129 8.6
2008-04-09 07:55:36 51°17.939 2°57.239 95.5 2 109 8.5
2008-04-09 07:55:41 51°17.938 2°57.244 88.1 2 97 8.5
2008-04-09 07:55:46 51°17.939 2°57.249 80.2 2.1 79 8.6
2008-04-09 07:55:51 51°17.94 2°57.253 73.7 2.1 68 8.6
2008-04-09 07:55:56 51°17.942 2°57.256 64.4 2 50 8.5
2008-04-09 07:56:01 51°17.944 2°57.259 57.2 1.9 46 8.5
2008-04-09 07:56:06 51°17.946 2°57.261 52.3 1.9 34 8.4
2008-04-09 07:56:11 51°17.949 2°57.264 49.3 1.9 35 8.5
2008-04-09 07:56:16 51°17.951 2°57.266 47.5 1.9 28 8.4
2008-04-09 07:56:21 51°17.953 2°57.268 46.4 2.1 32 8.5
2008-04-09 07:56:26 51°17.956 2°57.271 46.4 2.3 32 8.4
2008-04-09 07:56:31 51°17.959 2°57.275 49 2.4 41 8.4
2008-04-09 07:56:36 51°17.961 2°57.279 54.1 2.5 51 8.4
2008-04-09 07:56:41 51°17.963 2°57.284 58.5 2.6 59 8.4
2008-04-09 07:56:46 51°17.964 2°57.289 64.1 2.8 63 8.4
2008-04-09 07:56:51 51°17.966 2°57.295 67.3 2.9 67 8.4
2008-04-09 07:56:56 51°17.967 2°57.302 69.6 3 68 8.4
2008-04-09 07:57:01 51°17.969 2°57.309 71.2 3.2 74 8.4
2008-04-09 07:57:06 51°17.97 2°57.315 72.5 3.2 74 8.4
2008-04-09 07:57:11 51°17.971 2°57.322 73.8 3.2 78 8.5
2008-04-09 07:57:16 51°17.972 2°57.329 75 3.1 78 8.5
2008-04-09 07:57:21 51°17.972 2°57.335 76.1 3 83 8.4
2008-04-09 07:57:26 51°17.973 2°57.341 77.7 2.7 84 8.4
2008-04-09 07:57:31 51°17.972 2°57.347 79.1 2.6 91 8.5
2008-04-09 07:57:36 51°17.972 2°57.353 81.9 2.5 92 8.5
2008-04-09 07:57:41 51°17.972 2°57.358 84.5 2.5 101 8.5
2008-04-09 07:57:46 51°17.971 2°57.363 86.8 2.4 98 8.5
2008-04-09 07:57:51 51°17.97 2°57.368 88.3 2.4 109 8.5
2008-04-09 07:57:56 51°17.969 2°57.373 90.5 2.4 107 8.6
2008-04-09 07:58:02 51°17.968 2°57.379 91.7 2.4 111 8.6
2008-04-09 07:58:06 51°17.967 2°57.384 92.9 2.4 108 8.6
2008-04-09 07:58:11 51°17.966 2°57.389 93.5 2.6 112 8.7
2008-04-09 07:58:16 51°17.964 2°57.394 93.8 2.6 110 8.7
2008-04-09 07:58:21 51°17.963 2°57.4 94.2 2.8 111 8.7
2008-04-09 07:58:26 51°17.961 2°57.406 94.2 2.8 110 8.7
2008-04-09 07:58:31 51°17.96 2°57.412 94.3 2.9 109 8.7
2008-04-09 07:58:36 51°17.959 2°57.418 93.9 3 110 8.7
2008-04-09 07:58:41 51°17.958 2°57.425 93.8 3 108 8.7
2008-04-09 07:58:46 51°17.956 2°57.431 93.3 3 110 8.7
2008-04-09 07:58:51 51°17.955 2°57.438 93.4 3.1 107 8.7
2008-04-09 07:58:56 51°17.954 2°57.444 93.2 3.2 109 8.7
2008-04-09 07:59:01 51°17.952 2°57.451 93.4 3.2 107 8.7
2008-04-09 07:59:06 51°17.951 2°57.458 93.5 3.2 106 8.7
2008-04-09 07:59:11 51°17.95 2°57.465 93.5 3.2 108 8.7
2008-04-09 07:59:16 51°17.949 2°57.471 93.6 3.3 108 8.8
2008-04-09 07:59:21 51°17.947 2°57.478 93.6 3.3 108 8.8
2008-04-09 07:59:26 51°17.946 2°57.485 94 3.3 106 8.8
2008-04-09 07:59:31 51°17.944 2°57.492 94.2 3.4 110 8.7
2008-04-09 07:59:36 51°17.943 2°57.499 94.3 3.3 107 8.7
2008-04-09 07:59:41 51°17.941 2°57.507 94.7 3.4 110 8.7
2008-04-09 07:59:46 51°17.94 2°57.514 95 3.4 109 8.7
2008-04-09 07:59:51 51°17.938 2°57.521 95.1 3.4 110 8.7
2008-04-09 07:59:56 51°17.937 2°57.528 95.4 3.4 109 8.7
2008-04-09 08:00:01 51°17.935 2°57.535 95.6 3.4 111 8.7
2008-04-09 08:00:06 51°17.933 2°57.542 95.9 3.4 108 8.7
2008-04-09 08:00:11 51°17.932 2°57.549 95.7 3.4 109 8.6
2008-04-09 08:00:16 51°17.931 2°57.556 94.7 3.3 105 8.7
2008-04-09 08:00:21 51°17.93 2°57.563 92.8 3.3 105 8.7
2008-04-09 08:00:26 51°17.929 2°57.57 90.7 3.2 100 8.7
2008-04-09 08:00:31 51°17.928 2°57.577 88.7 3.2 98 8.7
2008-04-09 08:00:36 51°17.928 2°57.584 86.9 3.2 97 8.7
2008-04-09 08:00:41 51°17.928 2°57.591 85.1 3.1 94 8.7
2008-04-09 08:00:46 51°17.928 2°57.598 83.6 3.1 90 8.7
2008-04-09 08:00:51 51°17.928 2°57.605 81.9 3.1 90 8.7
2008-04-09 08:00:56 51°17.928 2°57.611 80 3 87 8.6
2008-04-09 08:01:01 51°17.928 2°57.618 79.2 3 84 8.6
2008-04-09 08:01:06 51°17.928 2°57.624 77.7 3 83 8.6
2008-04-09 08:01:11 51°17.929 2°57.63 75.2 2.8 76 8.6
2008-04-09 08:01:16 51°17.931 2°57.636 71.9 2.8 73 8.6
2008-04-09 08:01:21 51°17.932 2°57.642 69.2 2.8 70 8.6
2008-04-09 08:01:26 51°17.934 2°57.648 66.6 2.8 68 8.6
2008-04-09 08:01:31 51°17.936 2°57.653 64 2.8 60 8.6
2008-04-09 08:01:36 51°17.938 2°57.659 62.3 2.8 61 8.6
2008-04-09 08:01:41 51°17.94 2°57.664 60.3 2.8 53 8.6
2008-04-09 08:01:46 51°17.943 2°57.669 58.2 2.9 57 8.6
2008-04-09 08:01:51 51°17.945 2°57.674 56.5 2.9 49 8.6
2008-04-09 08:01:56 51°17.948 2°57.679 55.1 2.9 53 8.5
2008-04-09 08:02:01 51°17.951 2°57.684 54.7 3 46 8.5
2008-04-09 08:02:06 51°17.954 2°57.689 54.8 3.1 53 8.5
2008-04-09 08:02:11 51°17.956 2°57.694 55 3 48 8.5
2008-04-09 08:02:16 51°17.958 2°57.7 55.7 3.1 54 8.6
2008-04-09 08:02:21 51°17.961 2°57.705 56.2 3.1 49 8.6
2008-04-09 08:02:26 51°17.964 2°57.711 56.8 3.1 55 8.5
2008-04-09 08:02:31 51°17.966 2°57.716 57.2 3.1 51 8.5
2008-04-09 08:02:36 51°17.969 2°57.722 57.8 3.1 57 8.5
2008-04-09 08:02:41 51°17.972 2°57.727 58.3 3.1 52 8.5
2008-04-09 08:02:46 51°17.974 2°57.733 58.7 3.1 55 8.5
2008-04-09 08:02:51 51°17.977 2°57.738 58.9 3.1 53 8.4
2008-04-09 08:02:56 51°17.979 2°57.744 59 3.1 55 8.5
2008-04-09 08:03:01 51°17.982 2°57.75 59 3.1 54 8.5
2008-04-09 08:03:06 51°17.984 2°57.755 58.8 3.2 53 8.5
2008-04-09 08:03:11 51°17.987 2°57.761 58.8 3.1 54 8.4
2008-04-09 08:03:16 51°17.99 2°57.766 58.7 3.1 54 8.5
2008-04-09 08:03:21 51°17.992 2°57.772 58.7 3.2 55 8.5
2008-04-09 08:03:26 51°17.995 2°57.778 58.6 3.2 54 8.4
2008-04-09 08:03:31 51°17.997 2°57.783 58.5 3.2 54 8.4
2008-04-09 08:03:36 51°18 2°57.789 58.3 3.2 52 8.5
2008-04-09 08:03:41 51°18.002 2°57.795 58.3 3.2 55 8.5
2008-04-09 08:03:46 51°18.005 2°57.8 58.1 3.2 53 8.5
2008-04-09 08:03:51 51°18.007 2°57.806 58.1 3.2 56 8.5
2008-04-09 08:03:57 51°18.01 2°57.813 58.3 3.2 52 8.4
2008-04-09 08:04:01 51°18.012 2°57.817 58.5 3.2 56 8.5
2008-04-09 08:04:06 51°18.015 2°57.823 58.6 3.2 53 8.4
2008-04-09 08:04:11 51°18.017 2°57.828 58.7 3.2 55 8.4
2008-04-09 08:04:16 51°18.02 2°57.834 58.7 3.2 54 8.5
2008-04-09 08:04:21 51°18.022 2°57.84 58.7 3.2 56 8.5
2008-04-09 08:04:26 51°18.025 2°57.846 58.7 3.2 53 8.4
2008-04-09 08:04:31 51°18.028 2°57.851 58.5 3.2 54 8.4
2008-04-09 08:04:36 51°18.03 2°57.857 58.4 3.2 54 8.4
2008-04-09 08:04:41 51°18.033 2°57.863 58.4 3.2 55 8.4
2008-04-09 08:04:46 51°18.035 2°57.868 58.4 3.2 52 8.4
2008-04-09 08:04:51 51°18.038 2°57.874 58.4 3.2 55 8.4
2008-04-09 08:04:56 51°18.041 2°57.88 58.3 3.2 52 8.4
2008-04-09 08:05:01 51°18.043 2°57.885 58.3 3.2 54 8.4
2008-04-09 08:05:06 51°18.046 2°57.891 58.3 3.2 55 8.4
2008-04-09 08:05:11 51°18.048 2°57.897 58.5 3.2 52 8.4
2008-04-09 08:05:16 51°18.051 2°57.903 58.5 3.2 56 8.3
2008-04-09 08:05:21 51°18.054 2°57.908 58.5 3.2 50 8.3
2008-04-09 08:05:26 51°18.056 2°57.914 58.5 3.2 57 8.4
2008-04-09 08:05:31 51°18.059 2°57.919 58.4 3.2 50 8.3
2008-04-09 08:05:36 51°18.062 2°57.925 58.4 3.2 57 8.3
2008-04-09 08:05:41 51°18.064 2°57.931 58.3 3.2 51 8.3
2008-04-09 08:05:46 51°18.067 2°57.937 58.4 3.2 57 8.3
2008-04-09 08:05:51 51°18.07 2°57.942 58.3 3.2 51 8.3
2008-04-09 08:05:56 51°18.072 2°57.948 58.3 3.2 56 8.3
2008-04-09 08:06:01 51°18.075 2°57.954 58.4 3.2 52 8.3
2008-04-09 08:06:06 51°18.078 2°57.96 58.3 3.2 57 8.3
2008-04-09 08:06:11 51°18.081 2°57.965 58.3 3.2 51 8.3
2008-04-09 08:06:16 51°18.083 2°57.971 58.3 3.2 57 8.3
2008-04-09 08:06:21 51°18.086 2°57.977 58.3 3.2 51 8.2
2008-04-09 08:06:26 51°18.088 2°57.983 58.4 3.2 56 8.2
2008-04-09 08:06:31 51°18.091 2°57.988 58.6 3.2 53 8.3
2008-04-09 08:06:37 51°18.094 2°57.995 58.7 3.2 57 8.2
2008-04-09 08:06:41 51°18.096 2°58 58.7 3.2 53 8.2
2008-04-09 08:06:46 51°18.099 2°58.006 58.8 3.2 56 8.2
2008-04-09 08:06:51 51°18.101 2°58.011 59 3.2 52 8.2
2008-04-09 08:06:56 51°18.104 2°58.017 58.8 3.2 57 8.2
2008-04-09 08:07:01 51°18.107 2°58.023 58.7 3.2 52 8.2
2008-04-09 08:07:06 51°18.109 2°58.029 58.1 3.2 56 8.2
2008-04-09 08:07:11 51°18.112 2°58.034 58.1 3.2 53 8.2
2008-04-09 08:07:17 51°18.115 2°58.041 58 3.2 53 8.2
2008-04-09 08:07:22 51°18.118 2°58.047 58 3.2 56 8.2
2008-04-09 08:07:26 51°18.12 2°58.052 58.2 3.2 53 8.2
2008-04-09 08:07:31 51°18.122 2°58.057 58.2 3.1 55 8.2
2008-04-09 08:07:36 51°18.125 2°58.063 58.3 3.2 54 8.2
2008-04-09 08:07:41 51°18.127 2°58.069 58.3 3.1 55 8.2
2008-04-09 08:07:46 51°18.13 2°58.074 58.3 3.2 52 8.2
2008-04-09 08:07:51 51°18.133 2°58.08 58.3 3.2 56 8.2
2008-04-09 08:07:56 51°18.135 2°58.085 58.1 3.1 52 8.2
2008-04-09 08:08:01 51°18.138 2°58.091 58.2 3.1 55 8.2
2008-04-09 08:08:06 51°18.141 2°58.096 58.2 3.1 53 8.1
2008-04-09 08:08:11 51°18.143 2°58.102 58.3 3.1 54 8.1
2008-04-09 08:08:16 51°18.146 2°58.108 58.5 3.1 55 8.1
2008-04-09 08:08:22 51°18.149 2°58.115 58.5 3.1 54 8.1
2008-04-09 08:08:26 51°18.151 2°58.119 58.7 3.1 56 8.1
2008-04-09 08:08:31 51°18.153 2°58.125 58.7 3.1 53 8.1
2008-04-09 08:08:36 51°18.156 2°58.13 58.5 3.1 54 8.1
2008-04-09 08:08:41 51°18.158 2°58.136 58.5 3.1 55 8.1
2008-04-09 08:08:46 51°18.161 2°58.141 58.1 3.1 52 8.1
2008-04-09 08:08:51 51°18.163 2°58.147 58.1 3.1 56 8.1
2008-04-09 08:08:56 51°18.166 2°58.152 58.1 3.1 52 8.1
2008-04-09 08:09:01 51°18.168 2°58.158 58 3.1 56 8
2008-04-09 08:09:06 51°18.171 2°58.163 58 3.1 50 8
2008-04-09 08:09:11 51°18.174 2°58.169 58 3.1 55 8
2008-04-09 08:09:16 51°18.176 2°58.174 57.9 3.1 50 8
2008-04-09 08:09:22 51°18.179 2°58.181 58 3.1 56 8
2008-04-09 08:09:26 51°18.181 2°58.185 58 3.1 51 8
2008-04-09 08:09:31 51°18.184 2°58.191 58 3.1 55 8
2008-04-09 08:09:36 51°18.187 2°58.196 58.2 3.1 52 8
2008-04-09 08:09:41 51°18.189 2°58.202 58.2 3.1 55 8
2008-04-09 08:09:46 51°18.192 2°58.207 58.4 3.1 53 8
2008-04-09 08:09:51 51°18.194 2°58.213 58.4 3.1 55 8
2008-04-09 08:09:57 51°18.197 2°58.219 58.5 3.1 53 8
2008-04-09 08:10:02 51°18.2 2°58.225 58.5 3.1 54 8
2008-04-09 08:10:06 51°18.202 2°58.229 58.4 3.1 53 7.9
2008-04-09 08:10:11 51°18.204 2°58.235 58.3 3.1 53 8
2008-04-09 08:10:16 51°18.207 2°58.24 58.3 3.1 54 8
2008-04-09 08:10:21 51°18.209 2°58.245 58 3.1 52 8
2008-04-09 08:10:26 51°18.212 2°58.251 58.1 3.1 53 8
2008-04-09 08:10:31 51°18.215 2°58.256 58.1 3.1 52 7.9
2008-04-09 08:10:36 51°18.217 2°58.262 58.1 3.1 55 7.9
2008-04-09 08:10:41 51°18.22 2°58.267 58.3 3.1 50 8
2008-04-09 08:10:46 51°18.222 2°58.272 58.3 3.1 56 7.9
2008-04-09 08:10:51 51°18.225 2°58.278 58.3 3.1 53 7.9
2008-04-09 08:10:57 51°18.228 2°58.284 58.4 3.1 56 7.9
2008-04-09 08:11:01 51°18.23 2°58.288 58.4 3.1 50 7.9
2008-04-09 08:11:06 51°18.232 2°58.294 58.2 3 57 7.9
2008-04-09 08:11:11 51°18.235 2°58.299 58.2 3.1 49 7.9
2008-04-09 08:11:16 51°18.237 2°58.305 58.1 3 57 7.9
2008-04-09 08:11:21 51°18.24 2°58.31 58.1 3 51 7.9
2008-04-09 08:11:26 51°18.242 2°58.315 58.1 3 54 7.9
2008-04-09 08:11:31 51°18.245 2°58.32 58.1 3.1 50 7.9
2008-04-09 08:11:36 51°18.247 2°58.326 58.2 3 56 7.9
2008-04-09 08:11:42 51°18.25 2°58.332 58.2 3 50 7.9
2008-04-09 08:11:46 51°18.252 2°58.337 58.3 3 56 7.9
2008-04-09 08:11:51 51°18.255 2°58.342 58.3 3.1 50 7.9
2008-04-09 08:11:56 51°18.257 2°58.347 58.2 3 54 7.9
2008-04-09 08:12:01 51°18.26 2°58.352 58.2 3 50 7.9
2008-04-09 08:12:06 51°18.262 2°58.358 58.2 3 55 7.9
2008-04-09 08:12:11 51°18.265 2°58.363 58 3 50 7.9
2008-04-09 08:12:16 51°18.267 2°58.368 58 3 55 7.9
2008-04-09 08:12:21 51°18.27 2°58.373 58 3.1 50 7.9
2008-04-09 08:12:26 51°18.272 2°58.379 57.8 3 54 7.8
2008-04-09 08:12:31 51°18.275 2°58.384 57.9 3 50 7.9
2008-04-09 08:12:36 51°18.278 2°58.389 58 3 54 7.9
2008-04-09 08:12:41 51°18.28 2°58.394 58 3 50 7.9
2008-04-09 08:12:46 51°18.283 2°58.4 58 3 55 7.9
2008-04-09 08:12:51 51°18.285 2°58.405 58 3 51 7.8
2008-04-09 08:12:56 51°18.288 2°58.41 58.1 3 54 7.9
2008-04-09 08:13:01 51°18.291 2°58.415 58.3 3 50 7.8
2008-04-09 08:13:06 51°18.293 2°58.421 58.4 3 55 7.8
2008-04-09 08:13:11 51°18.295 2°58.426 58.5 3 52 7.8
2008-04-09 08:13:16 51°18.298 2°58.431 58.6 3 54 7.8
2008-04-09 08:13:21 51°18.3 2°58.436 58.6 3 51 7.8
2008-04-09 08:13:26 51°18.303 2°58.442 58.6 3 54 7.8
2008-04-09 08:13:31 51°18.305 2°58.447 58.6 3 50 7.9
2008-04-09 08:13:36 51°18.308 2°58.452 58.6 3 55 7.8
2008-04-09 08:13:41 51°18.31 2°58.457 58.5 2.9 51 7.8
2008-04-09 08:13:46 51°18.313 2°58.462 58.6 2.9 54 7.8
2008-04-09 08:13:51 51°18.315 2°58.467 58.7 2.9 53 7.8
2008-04-09 08:13:56 51°18.318 2°58.473 58.9 2.9 54 7.8
2008-04-09 08:14:02 51°18.321 2°58.479 59.4 2.9 54 7.8
2008-04-09 08:14:06 51°18.322 2°58.483 59.7 2.9 55 7.8
2008-04-09 08:14:11 51°18.325 2°58.489 60.1 2.9 55 7.8
2008-04-09 08:14:16 51°18.327 2°58.494 60.4 2.9 57 7.8
2008-04-09 08:14:21 51°18.329 2°58.499 60.8 2.9 56 7.8
2008-04-09 08:14:26 51°18.331 2°58.505 61.3 2.9 58 7.8
2008-04-09 08:14:31 51°18.333 2°58.51 61.5 2.8 57 7.7
2008-04-09 08:14:36 51°18.335 2°58.515 61.8 2.8 60 7.7
2008-04-09 08:14:41 51°18.338 2°58.521 62.2 2.8 56 7.7
2008-04-09 08:14:46 51°18.339 2°58.526 62.5 2.8 61 7.8
2008-04-09 08:14:51 51°18.342 2°58.531 62.5 2.8 57 7.7
2008-04-09 08:14:56 51°18.343 2°58.536 62.9 2.7 62 7.7
2008-04-09 08:15:01 51°18.345 2°58.542 63.1 2.7 56 7.7
2008-04-09 08:15:06 51°18.347 2°58.547 63.2 2.7 66 7.7
2008-04-09 08:15:11 51°18.349 2°58.552 63.7 2.7 55 7.7
2008-04-09 08:15:16 51°18.351 2°58.557 63.8 2.7 67 7.7
2008-04-09 08:15:21 51°18.353 2°58.562 64.1 2.7 58 7.7
2008-04-09 08:15:26 51°18.354 2°58.568 64.3 2.7 65 7.7
2008-04-09 08:15:31 51°18.356 2°58.573 64.6 2.7 61 7.7
2008-04-09 08:15:37 51°18.358 2°58.579 64.9 2.6 66 7.7
2008-04-09 08:15:41 51°18.359 2°58.584 65.2 2.6 63 7.7
2008-04-09 08:15:46 51°18.36 2°58.589 65.4 2.6 69 7.7
2008-04-09 08:15:51 51°18.362 2°58.594 66.7 2.5 71 7.7
2008-04-09 08:15:56 51°18.362 2°58.6 71 2.5 85 7.7
2008-04-09 08:16:01 51°18.362 2°58.605 76.3 2.4 90 7.7
2008-04-09 08:16:06 51°18.361 2°58.61 81.9 2.4 102 7.7
2008-04-09 08:16:11 51°18.36 2°58.616 86.4 2.4 113 7.7
2008-04-09 08:16:17 51°18.358 2°58.621 92.3 2.5 122 7.7
2008-04-09 08:16:22 51°18.355 2°58.625 98.1 2.6 130 7.9
2008-04-09 08:16:26 51°18.353 2°58.629 103.5 2.8 139 7.8
2008-04-09 08:16:31 51°18.349 2°58.632 110.3 2.9 145 7.9
2008-04-09 08:16:36 51°18.346 2°58.635 114.9 3 154 7.7
2008-04-09 08:16:41 51°18.342 2°58.638 120.5 3.2 158 7.8
2008-04-09 08:16:46 51°18.337 2°58.64 127.2 3.4 165 7.7
2008-04-09 08:16:51 51°18.332 2°58.641 133 3.6 169 7.7
2008-04-09 08:16:56 51°18.327 2°58.642 137.4 3.8 173 7.6
2008-04-09 08:17:01 51°18.321 2°58.643 142.6 3.9 177 7.7
2008-04-09 08:17:06 51°18.316 2°58.642 148 3.9 183 7.7
2008-04-09 08:17:11 51°18.311 2°58.642 153 3.7 185 7.7
2008-04-09 08:17:16 51°18.306 2°58.641 155.3 3.6 188 7.7
2008-04-09 08:17:22 51°18.3 2°58.639 156.6 3.6 189 7.6
2008-04-09 08:17:26 51°18.297 2°58.638 157.5 3.4 191 7.7
2008-04-09 08:17:31 51°18.292 2°58.636 158.1 3.4 192 7.6
2008-04-09 08:17:36 51°18.288 2°58.635 158.3 3.3 193 7.7
2008-04-09 08:17:41 51°18.283 2°58.633 158.8 3.2 192 7.6
2008-04-09 08:17:46 51°18.279 2°58.631 158.5 3.2 194 7.7
2008-04-09 08:17:51 51°18.275 2°58.63 158.5 3 193 7.6
2008-04-09 08:17:56 51°18.27 2°58.628 158 3.1 196 7.6
2008-04-09 08:18:01 51°18.267 2°58.627 157.4 2.9 193 7.6
2008-04-09 08:18:06 51°18.263 2°58.625 156.8 2.9 196 7.6
2008-04-09 08:18:11 51°18.259 2°58.623 156 2.7 193 7.6
2008-04-09 08:18:16 51°18.256 2°58.622 155.1 2.7 197 7.7
2008-04-09 08:18:22 51°18.252 2°58.62 154.2 2.6 194 7.6
2008-04-09 08:18:26 51°18.249 2°58.619 153 2.6 196 7.7
2008-04-09 08:18:31 51°18.246 2°58.617 152.4 2.4 194 7.6
2008-04-09 08:18:36 51°18.242 2°58.616 151.7 2.5 196 7.7
2008-04-09 08:18:41 51°18.239 2°58.614 150.9 2.3 195 7.6
2008-04-09 08:18:46 51°18.236 2°58.613 150.1 2.4 197 -999
2008-04-09 08:18:51 51°18.233 2°58.612 149.4 2.3 196 7.7
2008-04-09 08:18:56 51°18.23 2°58.61 148.6 2.3 198 7.6
2008-04-09 08:19:01 51°18.227 2°58.609 148 2.2 196 7.6
2008-04-09 08:19:06 51°18.224 2°58.607 147.1 2.1 198 7.6
2008-04-09 08:19:11 51°18.222 2°58.606 146.4 2.1 198 7.6
2008-04-09 08:19:16 51°18.219 2°58.605 145.7 2 198 7.6
2008-04-09 08:19:21 51°18.216 2°58.603 144.9 2 199 7.6
2008-04-09 08:19:26 51°18.214 2°58.602 144.2 1.9 198 7.6
2008-04-09 08:19:31 51°18.211 2°58.6 143.2 1.9 200 7.7
2008-04-09 08:19:36 51°18.209 2°58.599 142.3 1.8 199 7.7
2008-04-09 08:19:41 51°18.206 2°58.598 141.5 1.8 200 7.8
2008-04-09 08:19:46 51°18.204 2°58.596 140.6 1.8 200 7.7
2008-04-09 08:19:51 51°18.202 2°58.595 139.5 1.8 200 7.7
2008-04-09 08:19:56 51°18.2 2°58.594 138.7 1.7 202 7.7
2008-04-09 08:20:01 51°18.197 2°58.592 138 1.7 201 7.7
2008-04-09 08:20:06 51°18.195 2°58.591 137.1 1.6 203 7.7
2008-04-09 08:20:11 51°18.193 2°58.59 136.4 1.6 203 7.7
2008-04-09 08:20:16 51°18.191 2°58.588 135.6 1.6 203 7.8
2008-04-09 08:20:21 51°18.189 2°58.587 134.8 1.6 204 7.8
2008-04-09 08:20:26 51°18.187 2°58.586 134.2 1.6 198 7.8
2008-04-09 08:20:31 51°18.185 2°58.585 133.9 1.7 196 7.7
2008-04-09 08:20:36 51°18.182 2°58.584 134.5 1.8 193 7.8
2008-04-09 08:20:41 51°18.18 2°58.583 136 1.9 192 7.8
2008-04-09 08:20:46 51°18.177 2°58.582 137.8 2 190 7.8
2008-04-09 08:20:51 51°18.174 2°58.581 140.5 2.1 190 7.8
2008-04-09 08:20:56 51°18.171 2°58.581 143.3 2.3 187 7.8
2008-04-09 08:21:01 51°18.168 2°58.58 146.7 2.6 188 7.8
2008-04-09 08:21:06 51°18.164 2°58.579 150.9 2.9 188 7.7
2008-04-09 08:21:11 51°18.159 2°58.578 155.5 3.2 189 7.7
2008-04-09 08:21:17 51°18.154 2°58.576 160.7 3.4 192 7.7
2008-04-09 08:21:22 51°18.148 2°58.574 166 3.8 194 7.7
2008-04-09 08:21:26 51°18.144 2°58.572 171.4 4 197 7.7
2008-04-09 08:21:31 51°18.139 2°58.569 177 4.2 201 7.7
2008-04-09 08:21:36 51°18.133 2°58.565 182.4 4.5 204 7.7
2008-04-09 08:21:41 51°18.127 2°58.56 188.3 4.6 209 7.7
2008-04-09 08:21:46 51°18.122 2°58.554 193.7 4.8 211 7.7
2008-04-09 08:21:51 51°18.116 2°58.548 199.5 5 217 7.7
2008-04-09 08:21:56 51°18.111 2°58.541 205.4 5.1 220 7.7
2008-04-09 08:22:01 51°18.105 2°58.533 210.8 5.2 225 7.7
2008-04-09 08:22:06 51°18.101 2°58.524 216.9 5.3 228 7.7
2008-04-09 08:22:11 51°18.096 2°58.514 222.2 5.4 232 7.7
2008-04-09 08:22:16 51°18.092 2°58.504 228.1 5.5 235 7.7
2008-04-09 08:22:22 51°18.087 2°58.491 233.6 5.6 240 7.7
2008-04-09 08:22:26 51°18.084 2°58.483 238.4 5.7 241 7.8
2008-04-09 08:22:31 51°18.08 2°58.471 240.7 5.9 241 7.8
2008-04-09 08:22:36 51°18.076 2°58.46 241.6 6.1 242 7.8
2008-04-09 08:22:41 51°18.072 2°58.447 241.6 6.3 241 7.8
2008-04-09 08:22:46 51°18.068 2°58.435 241 6.5 241 7.8
2008-04-09 08:22:51 51°18.063 2°58.422 240.6 6.6 241 7.8
2008-04-09 08:22:56 51°18.058 2°58.409 239.7 6.8 240 7.9
2008-04-09 08:23:01 51°18.054 2°58.395 239.4 7 241 7.8
2008-04-09 08:23:06 51°18.049 2°58.382 239.5 7.1 242 7.9
2008-04-09 08:23:11 51°18.044 2°58.368 240.4 7.2 241 8
2008-04-09 08:23:16 51°18.039 2°58.353 240.9 7.3 242 7.9
2008-04-09 08:23:21 51°18.035 2°58.339 242 7.5 243 8
2008-04-09 08:23:26 51°18.03 2°58.323 242.4 7.7 243 8
2008-04-09 08:23:31 51°18.025 2°58.308 242.8 8 243 8.1
2008-04-09 08:23:36 51°18.02 2°58.292 243.3 8.2 243 8.1
2008-04-09 08:23:41 51°18.015 2°58.275 243.4 8.5 243 8.1
2008-04-09 08:23:46 51°18.009 2°58.257 243.5 8.8 244 8.2
2008-04-09 08:23:51 51°18.003 2°58.239 243.3 9.1 243 8.2
2008-04-09 08:23:57 51°17.997 2°58.217 243.1 9.3 244 8.2
2008-04-09 08:24:02 51°17.991 2°58.198 243.6 9.6 244 8.1
2008-04-09 08:24:06 51°17.986 2°58.182 243.8 9.8 244 8.1
2008-04-09 08:24:11 51°17.98 2°58.162 244.1 10.1 244 8.3
2008-04-09 08:24:16 51°17.973 2°58.142 244.1 10.3 244 8.3
2008-04-09 08:24:21 51°17.967 2°58.121 244 10.4 243 8.3
2008-04-09 08:24:26 51°17.961 2°58.1 243.8 10.5 244 8.2
2008-04-09 08:24:31 51°17.954 2°58.079 243.6 10.7 243 8.1
2008-04-09 08:24:36 51°17.947 2°58.058 243.5 10.7 243 8.2
2008-04-09 08:24:41 51°17.941 2°58.037 243.4 10.8 244 8.3
2008-04-09 08:24:46 51°17.934 2°58.015 243.3 10.9 243 8.3
2008-04-09 08:24:51 51°17.927 2°57.994 242.6 10.9 243 8.3
2008-04-09 08:24:56 51°17.92 2°57.972 241.9 11 242 8.4
2008-04-09 08:25:02 51°17.911 2°57.946 241.8 11 243 8.4
2008-04-09 08:25:06 51°17.905 2°57.929 241.7 11.1 242 8.4
2008-04-09 08:25:11 51°17.898 2°57.907 242.2 11.2 242 8.5
2008-04-09 08:25:16 51°17.891 2°57.885 242.1 11.3 243 8.5
2008-04-09 08:25:21 51°17.883 2°57.863 242.1 11.4 242 8.4
2008-04-09 08:25:26 51°17.876 2°57.84 242.1 11.4 243 8.4
2008-04-09 08:25:31 51°17.869 2°57.818 242.8 11.5 243 8.4
2008-04-09 08:25:36 51°17.862 2°57.795 243.3 11.5 244 8.4
2008-04-09 08:25:42 51°17.854 2°57.767 244 11.5 244 8.4
2008-04-09 08:25:46 51°17.848 2°57.749 244 11.7 243 8.4
2008-04-09 08:25:51 51°17.841 2°57.725 243.9 12 244 8.4
2008-04-09 08:25:56 51°17.833 2°57.701 243.8 12.1 243 8.4
2008-04-09 08:26:01 51°17.826 2°57.677 243.8 12.3 244 8.5
2008-04-09 08:26:06 51°17.817 2°57.652 243.1 12.5 242 8.5
2008-04-09 08:26:11 51°17.809 2°57.627 242.4 12.8 242 8.6
2008-04-09 08:26:16 51°17.801 2°57.602 242 13 241 8.4
2008-04-09 08:26:21 51°17.792 2°57.576 241.6 13.1 242 8.4
2008-04-09 08:26:26 51°17.783 2°57.551 241.6 13.2 242 8.3
2008-04-09 08:26:31 51°17.774 2°57.524 241.5 13.4 242 8.4
2008-04-09 08:26:37 51°17.764 2°57.493 241.4 13.5 241 8.4
2008-04-09 08:26:41 51°17.757 2°57.472 241.4 13.6 242 8.4
2008-04-09 08:26:46 51°17.748 2°57.445 241.5 13.6 241 8.4
2008-04-09 08:26:51 51°17.739 2°57.419 241.4 13.6 241 8.4
2008-04-09 08:26:56 51°17.729 2°57.392 241 13.7 241 8.5
2008-04-09 08:27:01 51°17.72 2°57.366 241.2 13.7 242 8.4
2008-04-09 08:27:06 51°17.711 2°57.339 241.6 13.8 242 8.2
2008-04-09 08:27:11 51°17.702 2°57.312 242.1 13.8 242 8.2
2008-04-09 08:27:17 51°17.691 2°57.28 242.2 13.7 242 8.2
2008-04-09 08:27:22 51°17.683 2°57.253 241.6 13.7 242 8.1
2008-04-09 08:27:26 51°17.675 2°57.232 241.7 13.7 242 8.2
2008-04-09 08:27:31 51°17.666 2°57.205 241.8 13.7 242 8.1
2008-04-09 08:27:36 51°17.658 2°57.178 242.2 13.8 242 8.2
2008-04-09 08:27:41 51°17.649 2°57.151 242.3 13.7 242 8.1
2008-04-09 08:27:46 51°17.64 2°57.124 242.4 13.7 243 8
2008-04-09 08:27:51 51°17.631 2°57.098 242.5 13.7 241 8
2008-04-09 08:27:56 51°17.622 2°57.071 241.9 13.7 242 8
2008-04-09 08:28:01 51°17.613 2°57.044 242.2 13.7 242 8
2008-04-09 08:28:06 51°17.604 2°57.018 242.1 13.7 242 8
2008-04-09 08:28:11 51°17.595 2°56.991 242 13.7 241 8
2008-04-09 08:28:16 51°17.586 2°56.964 242.1 13.7 243 8
2008-04-09 08:28:22 51°17.575 2°56.932 242.3 13.8 242 8
2008-04-09 08:28:26 51°17.568 2°56.91 242.6 13.8 242 8
2008-04-09 08:28:31 51°17.559 2°56.883 242.8 13.7 242 8
2008-04-09 08:28:36 51°17.55 2°56.856 242.3 13.8 241 8
2008-04-09 08:28:41 51°17.541 2°56.829 242.2 13.8 242 8
2008-04-09 08:28:46 51°17.532 2°56.802 242.5 13.7 242 8
2008-04-09 08:28:51 51°17.523 2°56.775 242.4 13.8 242 8
2008-04-09 08:28:56 51°17.514 2°56.748 242.5 13.8 243 8.1
2008-04-09 08:29:01 51°17.505 2°56.722 242.6 13.8 241 8
2008-04-09 08:29:06 51°17.496 2°56.694 242 13.8 242 8.1
2008-04-09 08:29:11 51°17.487 2°56.668 242.3 13.8 242 8.1
2008-04-09 08:29:17 51°17.477 2°56.635 242.3 13.8 242 8.1
2008-04-09 08:29:22 51°17.468 2°56.608 242.4 13.8 243 8.1
2008-04-09 08:29:26 51°17.461 2°56.587 242.7 13.8 242 8.1
2008-04-09 08:29:31 51°17.452 2°56.559 242.3 13.8 242 8.1